aviador You're here:

TTPP Decoded Metar

PORT-OF-SPAIN in TRINIDAD AND TOBAGO
Report Time2018-05-25 20:00:00
UTC Time2018-05-25 20:43:14
Flight Rules vfr VFR
Wind110° at 15 kt
W.Decomp.*RWY 10: 13.7 kt HW 6.1 kt RCW
W.Rank110° ranks 3
Current wind is above 110° avg. (8.9)
Visibility9999 m
Phenomena:N/A
Clouds:Few 022 Hf
Expected CloudBase > 3,200 ft AGL from Temp-Dew spread
CeilingNone
Temp30°C (ISA +15)
Dew Point22°C (62% RH)
Heat Index33.2°C
AAT29.3°C
QNH1012 hPa
Density Alt2,162 ft
Elevation49 ft
Report Wrong Elevation
Raw Report
TTPP 252000Z 11015KT 9999 FEW022 30/22 Q1012 NOSIG=

Extra information for TTPP:More info

Metar Taf Metar & Taf Last 4 Metars F.Rules Stats Wind Profile Meteogram Temp Stats Airport Information Weather charts Add Link Nearby VenuesMetar ALERT Operation Metar Decoded Social comments